Mikkalo, Oregon
Current Conditions -  °F | °C
As of 7:53 AM on Tuesday 21 Oct 2014 (Local Time) from KDLS Reporting Station
Scattered Clouds Scattered Clouds  
Wind Chill: 45°   Ceiling: Unl
Heat Index: 47°   Visibility: 10mi
Dew Point: 44°   Wind: 5mph
Humidity: 90%   Direction: 10°N
Pressure: 29.95"   Gusts: NA
Location:  45.47°N, 120.24°W
Report Text: KDLS 211453Z AUTO 01004KT 10SM FEW010 SCT075 08/07 A2995 RMK AO2 SLP142 T00830067 53017
Loading
Personal Weather Stations






























Interactive Weather Map
Tropical Storm Tracking
New forecast layout! Learn more

10-Day Weather Forecast

Advertisements
Track Severe Weather on mobile